Time;durP1;ratioP1;P1;durP2;ratioP2;P2;SDS_P1;SDS_P2;PMS_P1;PMS_P2;Temp;Humidity;BMP_temperature;BMP_pressure;BME280_temperature;BME280_humidity;BME280_pressure;Samples;Min_cycle;Max_cycle;Signal;HPM_P1;HPM_P2
2022/08/12 00:44:22;;;;;;;;;;;;;;;15.35;72.57;100599.48;1435179;91;20280;-81
2022/08/12 00:46:57;;;;;;;;;;;;;;;15.35;72.60;100602.66;1439486;91;20837;-82
2022/08/12 00:49:24;;;;;;;;;;;;;;;15.36;71.86;100605.64;1440340;91;20581;-81
2022/08/12 00:52:05;;;;;;;;;;;;;;;15.38;72.62;100598.81;1437874;91;20817;-81
2022/08/12 00:54:36;;;;;;;;;;;;;;;15.42;72.38;100604.11;1449036;91;20339;-81
2022/08/12 00:57:05;;;;;;;;;;;;;;;15.44;72.11;100612.78;1416514;91;20323;-81
2022/08/12 00:59:34;;;;;;;;;;;;;;;15.42;72.97;100600.11;1434429;91;20294;-81
2022/08/12 01:02:01;;;;;;;;;;;;;;;15.37;72.72;100602.50;1364806;90;20786;-81
2022/08/12 01:12:42;;;;;;;;;;;;;;;15.11;73.77;100597.77;1434522;89;20354;-85
2022/08/12 01:15:11;;;;;;;;;;;;;;;15.10;72.90;100599.27;1416065;91;20547;-82
2022/08/12 01:17:39;;;;;;;;;;;;;;;15.01;74.41;100592.30;1417922;91;20391;-81
2022/08/12 01:20:07;;;;;;;;;;;;;;;14.99;74.57;100602.30;1435126;91;20316;-82
2022/08/12 01:22:48;;;;;;;;;;;;;;;14.95;73.93;100600.99;1437926;91;20317;-81
2022/08/12 01:25:20;;;;;;;;;;;;;;;14.93;75.14;100602.98;1431876;91;20323;-81
2022/08/12 01:27:48;;;;;;;;;;;;;;;14.87;75.12;100602.70;1434394;91;20309;-82
2022/08/12 01:30:15;;;;;;;;;;;;;;;14.85;75.27;100599.87;1417831;91;20347;-81
2022/08/12 01:32:43;;;;;;;;;;;;;;;14.82;76.05;100605.55;1440580;91;20317;-81
2022/08/12 01:35:12;;;;;;;;;;;;;;;14.78;75.44;100605.53;1442663;91;20323;-81
2022/08/12 01:37:57;;;;;;;;;;;;;;;14.75;75.53;100602.70;1432987;90;20454;-81
2022/08/12 01:40:25;;;;;;;;;;;;;;;14.71;76.84;100604.57;1435016;91;20432;-82
2022/08/12 01:42:53;;;;;;;;;;;;;;;14.69;76.47;100602.06;1433613;91;20460;-82
2022/08/12 01:45:23;;;;;;;;;;;;;;;14.65;76.52;100595.42;1420695;91;20311;-82
2022/08/12 01:48:17;;;;;;;;;;;;;;;14.64;76.87;100593.74;1426441;91;20343;-82
2022/08/12 01:50:50;;;;;;;;;;;;;;;14.62;76.74;100592.59;1437917;91;20335;-82
2022/08/12 01:53:17;;;;;;;;;;;;;;;14.65;76.42;100587.44;1427427;91;20461;-82
2022/08/12 01:55:46;;;;;;;;;;;;;;;14.65;76.83;100586.10;1424172;91;20942;-82
2022/08/12 01:59:45;;;;;;;;;;;;;;;14.60;77.61;100585.27;1390376;91;20982;-81
2022/08/12 02:01:08;;;;;;;;;;;;;;;14.60;76.82;100581.78;1417361;91;20322;-81
2022/08/12 02:12:45;;;;;;;;;;;;;;;14.59;78.01;100581.45;1365974;92;20312;-82
2022/08/12 02:15:39;;;;;;;;;;;;;;;14.60;77.20;100575.12;1426687;91;20409;-81
2022/08/12 02:18:27;;;;;;;;;;;;;;;14.60;77.44;100572.45;1422325;91;20289;-82
2022/08/12 02:21:09;;;;;;;;;;;;;;;14.55;78.07;100570.29;1423831;91;20379;-82
2022/08/12 02:23:35;;;;;;;;;;;;;;;14.52;78.07;100568.48;1438847;91;20968;-80
2022/08/12 02:26:05;;;;;;;;;;;;;;;14.44;78.60;100568.80;1418330;91;20290;-79
2022/08/12 02:28:32;;;;;;;;;;;;;;;14.41;78.68;100562.96;1431436;91;20386;-82
2022/08/12 02:31:03;;;;;;;;;;;;;;;14.43;78.47;100569.78;1425851;91;20276;-82
2022/08/12 02:33:34;;;;;;;;;;;;;;;14.43;78.88;100568.45;1424372;90;20974;-82
2022/08/12 02:36:02;;;;;;;;;;;;;;;14.42;79.03;100568.13;1413622;92;20380;-82
2022/08/12 02:38:30;;;;;;;;;;;;;;;14.42;78.53;100573.45;1440989;91;20284;-82
2022/08/12 02:40:58;;;;;;;;;;;;;;;14.42;78.85;100576.13;1432260;91;20438;-82
2022/08/12 02:43:58;;;;;;;;;;;;;;;14.44;78.96;100577.27;1437919;91;20380;-82
2022/08/12 02:46:30;;;;;;;;;;;;;;;14.46;78.10;100577.94;1444166;89;20769;-81
2022/08/12 02:49:05;;;;;;;;;;;;;;;14.45;79.04;100576.29;1456432;89;21079;-82
2022/08/12 02:51:33;;;;;;;;;;;;;;;14.49;78.82;100580.77;1442803;89;20352;-82
2022/08/12 02:54:02;;;;;;;;;;;;;;;14.53;78.83;100584.30;1458900;89;20292;-82
2022/08/12 02:56:28;;;;;;;;;;;;;;;14.55;78.70;100584.11;1456638;89;20315;-81
2022/08/12 02:58:56;;;;;;;;;;;;;;;14.56;78.13;100581.80;1456221;89;20314;-82
2022/08/12 03:01:32;;;;;;;;;;;;;;;14.53;78.00;100577.64;1459257;89;21115;-82
2022/08/12 03:04:05;;;;;;;;;;;;;;;14.50;78.45;100581.95;1458993;89;20291;-82
2022/08/12 03:06:42;;;;;;;;;;;;;;;14.47;78.08;100576.92;1459135;89;20278;-82
2022/08/12 03:09:12;;;;;;;;;;;;;;;14.48;78.04;100580.45;1460432;89;20353;-82
2022/08/12 03:11:48;;;;;;;;;;;;;;;14.42;78.93;100573.97;1454354;89;20434;-81
2022/08/12 03:14:17;;;;;;;;;;;;;;;14.38;78.74;100582.77;1458851;89;20292;-82
2022/08/12 03:16:46;;;;;;;;;;;;;;;14.38;78.77;100577.95;1443590;89;20335;-82
2022/08/12 03:19:12;;;;;;;;;;;;;;;14.34;79.54;100579.30;1431975;91;20335;-82
2022/08/12 03:21:40;;;;;;;;;;;;;;;14.37;78.55;100587.77;1437151;91;20833;-82
2022/08/12 03:24:08;;;;;;;;;;;;;;;14.40;79.12;100578.62;1435143;91;20938;-82
2022/08/12 03:26:34;;;;;;;;;;;;;;;14.41;78.79;100583.79;1429430;91;21016;-81
2022/08/12 03:29:05;;;;;;;;;;;;;;;14.40;79.23;100580.77;1417930;91;20327;-81
2022/08/12 03:31:32;;;;;;;;;;;;;;;14.39;79.15;100576.97;1397813;92;20561;-82
2022/08/12 03:34:06;;;;;;;;;;;;;;;14.38;78.33;100584.09;1430594;91;20855;-82
2022/08/12 03:36:34;;;;;;;;;;;;;;;14.36;79.79;100585.30;1438291;90;20416;-81
2022/08/12 03:41:56;;;;;;;;;;;;;;;14.28;79.94;100576.80;1403639;91;20368;-81
2022/08/12 04:01:09;;;;;;;;;;;;;;;14.39;79.21;100573.80;1398318;91;20275;-81
2022/08/12 04:03:52;;;;;;;;;;;;;;;14.41;79.90;100573.14;1418759;91;20403;-82
2022/08/12 04:06:25;;;;;;;;;;;;;;;14.49;79.35;100574.11;1400346;91;20416;-82
2022/08/12 04:08:56;;;;;;;;;;;;;;;14.52;79.65;100571.14;1407473;91;20313;-82
2022/08/12 04:14:19;;;;;;;;;;;;;;;14.55;79.98;100582.78;1407170;91;20254;-82
2022/08/12 04:16:41;;;;;;;;;;;;;;;14.59;79.67;100580.13;1429886;91;20455;-82
2022/08/12 04:19:07;;;;;;;;;;;;;;;14.61;80.20;100584.25;1426764;91;20350;-82
2022/08/12 04:21:33;;;;;;;;;;;;;;;14.63;79.50;100580.10;1428025;91;20402;-82
2022/08/12 04:24:00;;;;;;;;;;;;;;;14.61;79.20;100582.09;1418860;91;20335;-82
2022/08/12 04:26:27;;;;;;;;;;;;;;;14.65;80.36;100580.27;1429118;91;20285;-82
2022/08/12 04:28:57;;;;;;;;;;;;;;;14.73;79.78;100586.09;1427329;91;20336;-81
2022/08/12 04:31:35;;;;;;;;;;;;;;;14.82;79.71;100587.72;1405318;93;20353;-82
2022/08/12 04:34:03;;;;;;;;;;;;;;;14.92;79.61;100590.68;1401694;91;20306;-82
2022/08/12 04:36:30;;;;;;;;;;;;;;;14.99;78.83;100592.97;1427309;91;20335;-82
2022/08/12 04:38:57;;;;;;;;;;;;;;;15.04;77.77;100589.30;1413071;91;20298;-82
2022/08/12 04:41:26;;;;;;;;;;;;;;;15.14;77.59;100592.59;1415094;92;20379;-82
2022/08/12 04:43:53;;;;;;;;;;;;;;;15.22;76.90;100594.38;1419236;91;20317;-81
2022/08/12 04:46:20;;;;;;;;;;;;;;;15.29;77.16;100601.52;1424897;89;20304;-82
2022/08/12 04:48:46;;;;;;;;;;;;;;;15.37;77.15;100601.98;1416683;91;20357;-82
2022/08/12 04:51:13;;;;;;;;;;;;;;;15.44;76.23;100600.78;1430184;91;20298;-82
2022/08/12 04:53:40;;;;;;;;;;;;;;;15.52;76.31;100604.73;1413737;91;20328;-81
2022/08/12 04:56:07;;;;;;;;;;;;;;;15.60;76.40;100614.03;1422772;92;20319;-82
2022/08/12 04:58:33;;;;;;;;;;;;;;;15.65;75.52;100605.00;1435572;91;20841;-82
2022/08/12 05:01:00;;;;;;;;;;;;;;;15.73;75.32;100611.62;1430836;90;20334;-82
2022/08/12 05:03:26;;;;;;;;;;;;;;;15.82;75.32;100614.25;1432945;91;20283;-82
2022/08/12 05:05:52;;;;;;;;;;;;;;;15.88;74.64;100611.72;1404526;92;20631;-81
2022/08/12 05:08:18;;;;;;;;;;;;;;;15.99;74.17;100618.46;1435001;91;20893;-82
2022/08/12 05:10:46;;;;;;;;;;;;;;;16.10;73.85;100621.22;1425921;91;20312;-82
2022/08/12 05:13:14;;;;;;;;;;;;;;;16.20;73.87;100619.16;1414644;91;20498;-82
2022/08/12 05:15:42;;;;;;;;;;;;;;;16.31;72.46;100620.03;1418010;91;20401;-82
2022/08/12 05:18:07;;;;;;;;;;;;;;;16.44;72.08;100618.09;1412969;91;20342;-82
2022/08/12 05:20:33;;;;;;;;;;;;;;;16.57;72.47;100614.31;1435886;89;20342;-81
2022/08/12 05:23:16;;;;;;;;;;;;;;;16.67;71.50;100614.03;1440568;90;20401;-82
2022/08/12 05:25:44;;;;;;;;;;;;;;;16.73;70.15;100607.95;1434368;89;20583;-82
2022/08/12 05:28:11;;;;;;;;;;;;;;;16.80;69.65;100613.41;1414320;92;20282;-82
2022/08/12 05:30:38;;;;;;;;;;;;;;;16.85;69.37;100608.36;1417086;92;20334;-82
2022/08/12 05:33:05;;;;;;;;;;;;;;;16.95;69.68;100610.26;1424244;91;20900;-82
2022/08/12 05:35:38;;;;;;;;;;;;;;;17.05;68.58;100606.78;1422134;89;20321;-85
2022/08/12 05:40:29;;;;;;;;;;;;;;;17.27;67.90;100610.36;1416500;89;20380;-86
2022/08/12 05:42:55;;;;;;;;;;;;;;;17.35;67.48;100610.27;1414181;91;20366;-85
2022/08/12 05:45:21;;;;;;;;;;;;;;;17.45;66.98;100611.29;1418732;91;20307;-85
2022/08/12 05:47:47;;;;;;;;;;;;;;;17.54;66.42;100616.84;1426396;91;20972;-85
2022/08/12 05:50:12;;;;;;;;;;;;;;;17.68;66.33;100612.99;1432453;91;20425;-86
2022/08/12 05:52:38;;;;;;;;;;;;;;;17.81;66.58;100609.98;1426450;91;20584;-84
2022/08/12 05:55:06;;;;;;;;;;;;;;;17.93;65.74;100612.98;1418725;91;20320;-86
2022/08/12 05:57:32;;;;;;;;;;;;;;;18.03;64.44;100616.15;1415294;91;20291;-85
2022/08/12 05:59:58;;;;;;;;;;;;;;;18.15;64.45;100615.63;1428236;91;20321;-85
2022/08/12 06:02:25;;;;;;;;;;;;;;;18.28;63.88;100614.42;1425518;91;20350;-85
2022/08/12 06:04:52;;;;;;;;;;;;;;;18.39;63.51;100615.23;1418680;91;21669;-86
2022/08/12 06:07:18;;;;;;;;;;;;;;;18.47;62.44;100615.09;1428971;91;20322;-85
2022/08/12 06:09:44;;;;;;;;;;;;;;;18.67;62.77;100613.05;1429033;91;20395;-85
2022/08/12 06:12:10;;;;;;;;;;;;;;;18.78;62.11;100611.19;1428404;91;20342;-86
2022/08/12 06:14:37;;;;;;;;;;;;;;;18.93;61.50;100619.97;1431737;91;20312;-86
2022/08/12 06:17:04;;;;;;;;;;;;;;;19.03;60.54;100618.77;1405186;91;20328;-85
2022/08/12 06:19:30;;;;;;;;;;;;;;;19.12;60.12;100612.21;1421688;91;20351;-86
2022/08/12 06:21:57;;;;;;;;;;;;;;;19.28;61.22;100613.74;1425756;91;20335;-85
2022/08/12 06:24:27;;;;;;;;;;;;;;;19.34;60.28;100611.08;1400577;93;20327;-85
2022/08/12 06:26:51;;;;;;;;;;;;;;;19.51;59.93;100614.76;1414302;91;20342;-86
2022/08/12 06:29:18;;;;;;;;;;;;;;;19.61;58.56;100617.87;1413726;91;20365;-86
2022/08/12 06:31:49;;;;;;;;;;;;;;;19.72;58.89;100617.31;1430409;91;20584;-86
2022/08/12 06:34:16;;;;;;;;;;;;;;;19.89;59.46;100612.39;1422629;91;20342;-85
2022/08/12 06:36:44;;;;;;;;;;;;;;;20.05;58.65;100613.84;1407708;91;20484;-86
2022/08/12 06:39:13;;;;;;;;;;;;;;;20.18;57.61;100619.23;1430176;91;20921;-85
2022/08/12 06:44:24;;;;;;;;;;;;;;;20.42;57.83;100623.16;1420630;90;20281;-85
2022/08/12 06:46:51;;;;;;;;;;;;;;;20.59;57.17;100619.56;1443821;90;21186;-86
2022/08/12 06:49:17;;;;;;;;;;;;;;;20.70;56.92;100618.11;1444126;90;20847;-85
2022/08/12 06:51:43;;;;;;;;;;;;;;;20.86;56.77;100624.89;1442216;90;20372;-85
2022/08/12 06:54:10;;;;;;;;;;;;;;;20.99;55.87;100614.11;1446994;90;20884;-86
2022/08/12 06:56:36;;;;;;;;;;;;;;;21.13;56.09;100611.67;1443497;90;20296;-85
2022/08/12 06:59:02;;;;;;;;;;;;;;;21.25;55.73;100611.84;1442501;90;20327;-86
2022/08/12 07:01:30;;;;;;;;;;;;;;;21.30;53.92;100615.25;1425090;90;20303;-85
2022/08/12 07:03:56;;;;;;;;;;;;;;;21.38;52.94;100615.04;1416025;90;20430;-85
2022/08/12 07:06:24;;;;;;;;;;;;;;;21.46;53.15;100604.00;1416675;90;20312;-85
2022/08/12 07:08:50;;;;;;;;;;;;;;;21.62;52.78;100615.63;1418206;90;20296;-86
2022/08/12 07:11:16;;;;;;;;;;;;;;;21.74;53.59;100608.21;1414822;90;20311;-86
2022/08/12 07:13:45;;;;;;;;;;;;;;;21.81;52.08;100600.93;1436104;90;20455;-86
2022/08/12 07:16:16;;;;;;;;;;;;;;;21.96;52.87;100596.05;1442358;90;20312;-85
2022/08/12 07:18:43;;;;;;;;;;;;;;;22.11;51.95;100594.38;1415511;90;20459;-86
2022/08/12 07:21:11;;;;;;;;;;;;;;;22.28;52.12;100593.34;1443969;90;20467;-86
2022/08/12 07:23:38;;;;;;;;;;;;;;;22.38;50.94;100589.60;1451031;90;21637;-86
2022/08/12 07:26:06;;;;;;;;;;;;;;;22.56;51.15;100588.84;1433031;90;20401;-86
2022/08/12 07:28:34;;;;;;;;;;;;;;;22.66;50.26;100581.03;1430015;90;20303;-86
2022/08/12 07:31:07;;;;;;;;;;;;;;;22.81;49.48;100590.11;1416077;90;20393;-86
2022/08/12 07:33:37;;;;;;;;;;;;;;;22.90;48.58;100590.63;1411607;90;20310;-86
2022/08/12 07:36:02;;;;;;;;;;;;;;;23.07;50.64;100592.23;1409753;91;20407;-85
2022/08/12 07:38:32;;;;;;;;;;;;;;;23.20;48.98;100579.94;1436501;90;20409;-85
2022/08/12 07:41:11;;;;;;;;;;;;;;;23.36;49.33;100580.67;1428135;90;20598;-85
2022/08/12 07:43:39;;;;;;;;;;;;;;;23.47;47.44;100582.28;1415397;91;20290;-86
2022/08/12 07:46:08;;;;;;;;;;;;;;;23.60;48.42;100579.41;1416055;91;20423;-86
2022/08/12 07:48:39;;;;;;;;;;;;;;;23.69;47.61;100584.77;1436824;90;20862;-88
2022/08/12 07:51:06;;;;;;;;;;;;;;;23.77;46.42;100585.84;1435695;91;20543;-87
2022/08/12 07:53:33;;;;;;;;;;;;;;;23.90;47.70;100587.50;1424527;90;20364;-86
2022/08/12 07:56:00;;;;;;;;;;;;;;;24.04;47.19;100582.71;1441922;91;20416;-86
2022/08/12 07:58:26;;;;;;;;;;;;;;;23.98;45.43;100570.95;1446998;89;20335;-86
2022/08/12 08:00:56;;;;;;;;;;;;;;;24.15;46.05;100568.39;1430199;91;20274;-86
2022/08/12 08:03:20;;;;;;;;;;;;;;;24.26;45.70;100577.04;1415698;91;20412;-88
2022/08/12 08:05:46;;;;;;;;;;;;;;;24.25;44.59;100573.20;1421194;91;20356;-87
2022/08/12 08:08:14;;;;;;;;;;;;;;;24.44;46.63;100572.06;1423550;91;20297;-87
2022/08/12 08:10:40;;;;;;;;;;;;;;;24.64;46.25;100573.06;1413674;91;20335;-87
2022/08/12 08:13:07;;;;;;;;;;;;;;;24.86;45.45;100560.24;1418524;91;20349;-87
2022/08/12 08:15:33;;;;;;;;;;;;;;;25.03;45.03;100562.52;1413989;91;20284;-87
2022/08/12 08:18:03;;;;;;;;;;;;;;;25.16;44.32;100560.91;1414455;91;20297;-87
2022/08/12 08:20:34;;;;;;;;;;;;;;;25.28;44.65;100561.39;1413373;91;20400;-87
2022/08/12 08:23:06;;;;;;;;;;;;;;;25.41;43.81;100565.17;1433036;91;21885;-87
2022/08/12 08:25:34;;;;;;;;;;;;;;;25.54;43.72;100565.40;1433139;89;20342;-87
2022/08/12 08:28:03;;;;;;;;;;;;;;;25.72;44.66;100558.94;1432352;91;20546;-86
2022/08/12 08:30:30;;;;;;;;;;;;;;;25.71;40.01;100561.37;1417671;91;20365;-86
2022/08/12 08:32:56;;;;;;;;;;;;;;;25.90;42.76;100560.11;1422968;91;20483;-88
2022/08/12 08:35:26;;;;;;;;;;;;;;;25.99;40.23;100554.56;1425404;90;20283;-87
2022/08/12 08:37:52;;;;;;;;;;;;;;;26.07;40.71;100556.05;1426264;89;20924;-86
2022/08/12 08:43:03;;;;;;;;;;;;;;;26.07;39.55;100558.22;1426619;91;21077;-87
2022/08/12 08:45:30;;;;;;;;;;;;;;;26.07;39.05;100563.64;1439832;91;20995;-87
2022/08/12 08:47:58;;;;;;;;;;;;;;;26.17;39.39;100558.90;1418616;92;20431;-87
2022/08/12 08:50:24;;;;;;;;;;;;;;;26.25;40.29;100554.42;1416936;92;20305;-87
2022/08/12 08:52:49;;;;;;;;;;;;;;;26.45;40.92;100566.11;1441188;91;20349;-87
2022/08/12 08:55:15;;;;;;;;;;;;;;;26.58;38.76;100555.45;1438328;89;20320;-87
2022/08/12 08:57:44;;;;;;;;;;;;;;;26.69;40.12;100549.63;1438576;90;21105;-87
2022/08/12 09:00:13;;;;;;;;;;;;;;;26.90;40.47;100550.19;1440605;91;20906;-88
2022/08/12 09:02:39;;;;;;;;;;;;;;;27.07;39.88;100551.99;1437444;90;20319;-87
2022/08/12 09:05:05;;;;;;;;;;;;;;;27.13;37.68;100544.18;1425797;89;20416;-87
2022/08/12 09:07:33;;;;;;;;;;;;;;;27.18;37.87;100540.20;1412493;92;20380;-86
2022/08/12 09:09:59;;;;;;;;;;;;;;;27.22;36.92;100546.78;1398009;92;21189;-87
2022/08/12 09:15:09;;;;;;;;;;;;;;;27.29;37.58;100541.95;1439028;91;20409;-87
2022/08/12 09:17:36;;;;;;;;;;;;;;;27.43;35.93;100541.83;1434934;91;20871;-87
2022/08/12 09:20:02;;;;;;;;;;;;;;;27.58;37.56;100538.44;1415806;91;20299;-87
2022/08/12 09:22:28;;;;;;;;;;;;;;;27.73;36.78;100549.16;1417978;91;20852;-88
2022/08/12 09:24:54;;;;;;;;;;;;;;;27.70;35.43;100540.98;1417375;92;20299;-87
2022/08/12 09:27:20;;;;;;;;;;;;;;;27.75;35.90;100535.59;1415619;91;20289;-88
2022/08/12 09:29:46;;;;;;;;;;;;;;;27.72;35.23;100532.03;1414034;92;20350;-87
2022/08/12 09:32:12;;;;;;;;;;;;;;;27.62;34.62;100531.94;1400173;91;20313;-87
2022/08/12 09:34:39;;;;;;;;;;;;;;;27.78;35.41;100533.72;1436570;89;20320;-87
2022/08/12 09:37:05;;;;;;;;;;;;;;;27.79;35.34;100526.41;1435495;90;20349;-88
2022/08/12 09:39:31;;;;;;;;;;;;;;;28.05;36.85;100529.62;1442762;91;20915;-87
2022/08/12 09:47:27;;;;;;;;;;;;;;;28.10;34.78;100520.11;1411212;91;20356;-88
2022/08/12 09:49:54;;;;;;;;;;;;;;;28.04;34.07;100526.59;1443833;90;20454;-88
2022/08/12 09:52:21;;;;;;;;;;;;;;;28.07;34.13;100526.08;1431693;89;20528;-87
2022/08/12 09:54:47;;;;;;;;;;;;;;;28.35;34.06;100524.91;1432156;89;21107;-87
2022/08/12 09:57:18;;;;;;;;;;;;;;;28.33;34.18;100522.16;1427634;90;20282;-88
2022/08/12 09:59:44;;;;;;;;;;;;;;;28.59;35.54;100524.51;1412302;92;20231;-88
2022/08/12 10:02:11;;;;;;;;;;;;;;;28.65;33.70;100525.35;1428723;90;20308;-87
2022/08/12 10:04:47;;;;;;;;;;;;;;;28.71;33.21;100519.66;1425860;91;20291;-87
2022/08/12 10:07:05;;;;;;;;;;;;;;;28.84;34.15;100517.55;1426524;91;20261;-87
2022/08/12 10:09:31;;;;;;;;;;;;;;;28.92;33.00;100511.59;1445667;89;20914;-86
2022/08/12 10:14:43;;;;;;;;;;;;;;;29.14;33.15;100505.39;1445735;89;20327;-87
2022/08/12 10:17:09;;;;;;;;;;;;;;;29.22;32.07;100498.05;1442933;91;20319;-87
2022/08/12 10:19:36;;;;;;;;;;;;;;;29.36;33.08;100494.81;1440112;89;20358;-86
2022/08/12 10:22:04;;;;;;;;;;;;;;;29.33;32.73;100492.08;1438981;89;20387;-87
2022/08/12 10:24:30;;;;;;;;;;;;;;;29.44;31.61;100497.81;1444471;90;20380;-87
2022/08/12 10:29:43;;;;;;;;;;;;;;;29.76;30.98;100493.22;1417027;91;21275;-88
2022/08/12 10:32:11;;;;;;;;;;;;;;;29.76;31.28;100487.77;1426358;90;21129;-87
2022/08/12 10:34:38;;;;;;;;;;;;;;;29.75;31.45;100491.56;1444196;88;20936;-88
2022/08/12 10:37:05;;;;;;;;;;;;;;;29.79;30.96;100487.22;1429448;88;20320;-87
2022/08/12 10:39:35;;;;;;;;;;;;;;;29.86;31.48;100483.64;1423128;89;20361;-88
2022/08/12 10:44:48;;;;;;;;;;;;;;;29.86;30.57;100490.47;1399988;92;20297;-87
2022/08/12 10:47:20;;;;;;;;;;;;;;;29.95;30.94;100483.35;1424408;91;20315;-83
2022/08/12 10:49:43;;;;;;;;;;;;;;;30.05;31.26;100483.34;1442088;90;20882;-84
2022/08/12 10:52:11;;;;;;;;;;;;;;;30.01;30.05;100483.64;1450150;90;20468;-84
2022/08/12 10:54:37;;;;;;;;;;;;;;;30.10;29.04;100479.25;1448321;90;20430;-84
2022/08/12 10:57:04;;;;;;;;;;;;;;;30.28;30.21;100474.33;1449172;90;20414;-84
2022/08/12 10:59:30;;;;;;;;;;;;;;;30.40;31.60;100474.82;1450996;90;20379;-84
2022/08/12 11:01:58;;;;;;;;;;;;;;;30.32;29.35;100463.10;1446267;90;20431;-84
2022/08/12 11:04:25;;;;;;;;;;;;;;;30.15;29.95;100463.39;1445631;90;20345;-83
2022/08/12 11:06:52;;;;;;;;;;;;;;;29.90;29.80;100464.29;1438481;90;20321;-83
2022/08/12 11:09:30;;;;;;;;;;;;;;;29.83;29.44;100461.02;1447705;90;20930;-85
2022/08/12 11:12:05;;;;;;;;;;;;;;;29.68;29.03;100457.20;1447304;90;21017;-84
2022/08/12 11:14:33;;;;;;;;;;;;;;;29.80;29.94;100453.38;1441393;90;20293;-84
2022/08/12 11:17:07;;;;;;;;;;;;;;;30.02;30.87;100454.44;1440763;90;20318;-83
2022/08/12 11:19:35;;;;;;;;;;;;;;;29.97;28.28;100451.72;1463949;88;20290;-83
2022/08/12 11:22:03;;;;;;;;;;;;;;;30.07;29.18;100444.33;1449620;88;20512;-84
2022/08/12 11:24:29;;;;;;;;;;;;;;;30.18;28.80;100440.19;1466418;88;20423;-84
2022/08/12 11:26:56;;;;;;;;;;;;;;;30.08;28.37;100443.23;1476417;88;20395;-83
2022/08/12 11:29:23;;;;;;;;;;;;;;;30.28;29.48;100427.92;1474900;88;20802;-82
2022/08/12 11:31:49;;;;;;;;;;;;;;;30.35;27.48;100430.63;1444227;88;20400;-83
2022/08/12 11:34:15;;;;;;;;;;;;;;;30.37;28.92;100424.06;1445363;90;20418;-83
2022/08/12 11:36:55;;;;;;;;;;;;;;;30.42;29.29;100423.49;1442251;88;20979;-82
2022/08/12 11:39:21;;;;;;;;;;;;;;;30.31;28.51;100430.90;1438621;88;21515;-83
2022/08/12 11:41:48;;;;;;;;;;;;;;;30.33;27.76;100423.25;1436223;91;20519;-83
2022/08/12 11:44:14;;;;;;;;;;;;;;;30.37;27.34;100425.42;1433641;91;20347;-83
2022/08/12 11:46:41;;;;;;;;;;;;;;;30.45;28.58;100425.66;1437401;91;20302;-82
2022/08/12 11:49:08;;;;;;;;;;;;;;;30.50;28.03;100428.38;1428945;91;20333;-83
2022/08/12 11:51:35;;;;;;;;;;;;;;;30.62;28.17;100421.77;1432175;91;20413;-83
2022/08/12 11:57:52;;;;;;;;;;;;;;;30.54;28.46;100419.06;1445749;90;20427;-83
2022/08/12 12:00:19;;;;;;;;;;;;;;;30.56;28.63;100417.69;1451897;90;20612;-84
2022/08/12 12:02:46;;;;;;;;;;;;;;;30.57;27.95;100419.31;1437552;90;20925;-84
2022/08/12 12:05:14;;;;;;;;;;;;;;;30.79;28.09;100410.77;1448250;90;20294;-84
2022/08/12 12:07:43;;;;;;;;;;;;;;;30.70;27.58;100411.59;1435729;91;20287;-83
2022/08/12 12:10:17;;;;;;;;;;;;;;;30.46;27.79;100405.99;1441918;90;20357;-84
2022/08/12 12:12:43;;;;;;;;;;;;;;;30.43;27.36;100400.55;1451160;90;20922;-83
2022/08/12 12:15:09;;;;;;;;;;;;;;;30.49;27.92;100396.69;1452000;90;20487;-86
2022/08/12 12:17:36;;;;;;;;;;;;;;;30.53;25.79;100396.41;1447701;90;20459;-84
2022/08/12 12:20:10;;;;;;;;;;;;;;;30.87;27.21;100389.39;1448117;90;20467;-83
2022/08/12 12:22:38;;;;;;;;;;;;;;;31.06;27.11;100384.08;1444920;90;20285;-84
2022/08/12 12:25:05;;;;;;;;;;;;;;;31.17;27.03;100394.64;1438604;89;20520;-86
2022/08/12 12:27:46;;;;;;;;;;;;;;;30.85;25.66;100395.16;1440790;90;20315;-84
2022/08/12 12:30:12;;;;;;;;;;;;;;;30.89;25.94;100392.11;1498133;90;20330;-83
2022/08/12 12:32:38;;;;;;;;;;;;;;;30.89;25.71;100390.74;1442420;90;20777;-83
2022/08/12 12:35:04;;;;;;;;;;;;;;;30.92;25.42;100386.63;1453850;90;20290;-84
2022/08/12 12:37:33;;;;;;;;;;;;;;;31.08;26.59;100384.05;1453186;90;20311;-84
2022/08/12 12:39:59;;;;;;;;;;;;;;;31.41;27.62;100383.78;1454887;90;20405;-84
2022/08/12 12:42:25;;;;;;;;;;;;;;;31.56;25.87;100382.01;1450268;90;20330;-84
2022/08/12 12:44:51;;;;;;;;;;;;;;;31.74;24.95;100377.19;1434382;90;20351;-84
2022/08/12 12:47:17;;;;;;;;;;;;;;;32.07;25.28;100376.02;1432828;90;20380;-84
2022/08/12 12:49:43;;;;;;;;;;;;;;;32.19;24.48;100383.24;1451929;90;20364;-84
2022/08/12 12:52:09;;;;;;;;;;;;;;;32.34;23.81;100382.23;1452337;90;21061;-84
2022/08/12 12:54:35;;;;;;;;;;;;;;;32.33;23.70;100375.94;1445328;90;20387;-84
2022/08/12 12:57:01;;;;;;;;;;;;;;;32.33;24.33;100375.13;1437584;90;20885;-84
2022/08/12 12:59:30;;;;;;;;;;;;;;;32.31;23.66;100365.86;1441249;90;20304;-84
2022/08/12 13:02:05;;;;;;;;;;;;;;;32.43;24.57;100367.35;1448797;90;20404;-84
2022/08/12 13:04:25;;;;;;;;;;;;;;;32.65;24.01;100373.06;1440285;90;20307;-84
2022/08/12 13:06:51;;;;;;;;;;;;;;;32.91;23.61;100369.94;1446840;90;20453;-84
2022/08/12 13:09:18;;;;;;;;;;;;;;;32.97;22.89;100364.62;1433477;90;20351;-84
2022/08/12 13:11:45;;;;;;;;;;;;;;;33.08;22.54;100360.64;1434034;90;20907;-84
2022/08/12 13:14:12;;;;;;;;;;;;;;;32.97;22.03;100353.13;1445146;90;20285;-84
2022/08/12 13:16:41;;;;;;;;;;;;;;;33.21;22.50;100354.95;1429046;90;21031;-85
2022/08/12 13:19:06;;;;;;;;;;;;;;;33.44;22.00;100353.98;1435533;90;20302;-85
2022/08/12 13:22:14;;;;;;;;;;;;;;;33.31;21.98;100360.81;1447353;90;20360;-84
2022/08/12 13:24:08;;;;;;;;;;;;;;;33.76;22.22;100351.51;1430653;91;20389;-85
2022/08/12 13:26:36;;;;;;;;;;;;;;;34.26;21.29;100348.84;1432097;88;21280;-84
2022/08/12 13:29:02;;;;;;;;;;;;;;;34.09;19.61;100339.30;1433026;91;20280;-85
2022/08/12 13:31:28;;;;;;;;;;;;;;;34.48;20.31;100345.34;1449700;90;20397;-86
2022/08/12 13:33:55;;;;;;;;;;;;;;;34.36;18.61;100347.26;1430744;91;20309;-84
2022/08/12 13:36:21;;;;;;;;;;;;;;;34.69;19.36;100342.95;1442541;90;20414;-85
2022/08/12 13:38:50;;;;;;;;;;;;;;;35.08;19.47;100346.99;1442692;90;20295;-86
2022/08/12 13:41:31;;;;;;;;;;;;;;;35.16;18.61;100340.17;1429137;90;20477;-85
2022/08/12 13:43:44;;;;;;;;;;;;;;;35.65;18.96;100336.12;1445513;90;20380;-84
2022/08/12 13:46:14;;;;;;;;;;;;;;;35.64;18.83;100330.38;1440192;90;21719;-85
2022/08/12 13:48:42;;;;;;;;;;;;;;;35.93;17.89;100325.11;1435314;89;20335;-85
2022/08/12 13:51:09;;;;;;;;;;;;;;;35.95;17.68;100329.50;1431251;89;21088;-84
2022/08/12 13:53:35;;;;;;;;;;;;;;;36.14;17.78;100330.88;1440494;90;20461;-85
2022/08/12 13:56:01;;;;;;;;;;;;;;;36.48;18.64;100325.70;1433635;90;20889;-84
2022/08/12 13:58:27;;;;;;;;;;;;;;;36.53;17.86;100331.09;1433890;90;20308;-85
2022/08/12 14:00:55;;;;;;;;;;;;;;;36.49;17.96;100328.72;1428443;90;20403;-84
2022/08/12 14:03:22;;;;;;;;;;;;;;;36.40;18.45;100327.34;1427945;90;20334;-84
2022/08/12 14:05:48;;;;;;;;;;;;;;;36.27;18.56;100324.96;1436216;90;20364;-84
2022/08/12 14:08:16;;;;;;;;;;;;;;;35.93;18.40;100326.48;1448591;90;20323;-84
2022/08/12 14:10:48;;;;;;;;;;;;;;;35.93;17.38;100320.17;1445670;90;20304;-84
2022/08/12 14:13:16;;;;;;;;;;;;;;;35.59;17.98;100319.50;1436239;90;20373;-84
2022/08/12 14:15:45;;;;;;;;;;;;;;;35.31;17.46;100323.02;1420970;91;20876;-84
2022/08/12 14:18:17;;;;;;;;;;;;;;;35.59;17.08;100316.75;1359560;93;20332;-84
2022/08/12 14:20:46;;;;;;;;;;;;;;;35.35;17.18;100319.87;1375429;94;20424;-84
2022/08/12 14:23:12;;;;;;;;;;;;;;;35.45;17.69;100316.28;1379585;92;20586;-83
2022/08/12 14:25:39;;;;;;;;;;;;;;;35.53;17.87;100314.67;1384470;93;20489;-83
2022/08/12 14:28:17;;;;;;;;;;;;;;;35.84;17.87;100312.47;1393414;93;20534;-84
2022/08/12 14:31:01;;;;;;;;;;;;;;;35.38;15.95;100304.91;1398040;93;20384;-83
2022/08/12 14:33:44;;;;;;;;;;;;;;;36.22;16.94;100304.45;1397896;91;21133;-84